Time;durP1;ratioP1;P1;durP2;ratioP2;P2;SDS_P1;SDS_P2;PMS_P1;PMS_P2;Temp;Humidity;BMP_temperature;BMP_pressure;BME280_temperature;BME280_humidity;BME280_pressure;Samples;Min_cycle;Max_cycle;Signal;HPM_P1;HPM_P2
2022/02/13 00:00:48;;;;;;;15.00;10.90;;;3.10;99.90;;;;;;5015485;28;20072;-54
2022/02/13 00:03:14;;;;;;;15.35;10.88;;;3.10;99.90;;;;;;4998200;28;20033;-55
2022/02/13 00:05:39;;;;;;;13.55;10.48;;;3.10;99.90;;;;;;5016333;28;20033;-53
2022/02/13 00:08:05;;;;;;;15.07;11.05;;;3.00;99.90;;;;;;5015678;28;20048;-53
2022/02/13 00:10:31;;;;;;;14.98;10.38;;;3.00;99.90;;;;;;4998067;28;20045;-53
2022/02/13 00:12:57;;;;;;;15.05;10.73;;;2.90;99.90;;;;;;5015388;28;20363;-50
2022/02/13 00:15:22;;;;;;;14.82;10.77;;;2.90;99.90;;;;;;5014953;28;20041;-51
2022/02/13 00:17:48;;;;;;;18.17;10.82;;;2.80;99.90;;;;;;5015469;28;20042;-56
2022/02/13 00:20:14;;;;;;;13.40;9.77;;;2.80;99.90;;;;;;4997087;28;20076;-55
2022/02/13 00:22:39;;;;;;;13.80;9.95;;;2.70;99.90;;;;;;5015799;28;20502;-52
2022/02/13 00:25:05;;;;;;;14.95;11.02;;;2.70;99.90;;;;;;5016142;28;20038;-51
2022/02/13 00:27:30;;;;;;;17.42;12.05;;;2.70;99.90;;;;;;5015112;28;20033;-52
2022/02/13 00:29:56;;;;;;;17.13;11.77;;;2.70;99.90;;;;;;5016102;28;20034;-51
2022/02/13 00:32:23;;;;;;;16.23;11.10;;;2.70;99.90;;;;;;4998241;28;20037;-51
2022/02/13 00:34:49;;;;;;;15.43;10.70;;;2.60;99.90;;;;;;5015070;28;20026;-53
2022/02/13 00:37:15;;;;;;;14.52;10.90;;;2.60;99.90;;;;;;5014635;28;20042;-54
2022/02/13 00:39:41;;;;;;;16.42;11.45;;;2.50;99.90;;;;;;5015252;28;20161;-53
2022/02/13 00:42:07;;;;;;;15.40;10.88;;;2.40;99.90;;;;;;5015227;28;20034;-53
2022/02/13 00:44:33;;;;;;;15.77;10.73;;;2.40;99.90;;;;;;5016065;28;20034;-50
2022/02/13 00:46:59;;;;;;;13.23;10.45;;;2.50;99.90;;;;;;5015575;28;20540;-54
2022/02/13 00:49:24;;;;;;;15.35;10.60;;;2.50;99.90;;;;;;5015288;28;20065;-52
2022/02/13 00:51:50;;;;;;;16.58;10.85;;;2.50;99.90;;;;;;5014993;28;20049;-51
2022/02/13 00:54:16;;;;;;;14.15;9.95;;;2.50;99.90;;;;;;5014851;28;20049;-53
2022/02/13 00:56:41;;;;;;;14.63;10.13;;;2.60;99.90;;;;;;4997894;28;20080;-55
2022/02/13 00:59:07;;;;;;;12.75;9.77;;;2.50;99.90;;;;;;5014741;28;20030;-53
2022/02/13 01:01:33;;;;;;;13.27;9.88;;;2.40;99.90;;;;;;4997156;28;20026;-50
2022/02/13 01:03:58;;;;;;;12.95;10.63;;;2.50;99.90;;;;;;5014893;28;20046;-55
2022/02/13 01:06:27;;;;;;;13.70;10.55;;;2.40;99.90;;;;;;5014318;28;20030;-52
2022/02/13 01:08:53;;;;;;;13.63;9.77;;;2.50;99.90;;;;;;5014321;28;20045;-50
2022/02/13 01:11:18;;;;;;;14.98;10.30;;;2.50;99.90;;;;;;5014753;28;20042;-51
2022/02/13 01:13:48;;;;;;;15.57;11.77;;;2.40;99.90;;;;;;5014363;28;20156;-50
2022/02/13 01:16:17;;;;;;;13.55;10.35;;;2.40;99.90;;;;;;5014593;28;20055;-53
2022/02/13 01:18:43;;;;;;;18.98;11.00;;;2.50;99.90;;;;;;5014465;28;20041;-54
2022/02/13 01:21:12;;;;;;;16.25;10.38;;;2.50;99.90;;;;;;5013604;28;20033;-54
2022/02/13 01:23:44;;;;;;;14.52;10.02;;;2.50;99.90;;;;;;5014210;28;20034;-55
2022/02/13 01:26:10;;;;;;;12.50;9.40;;;2.60;99.90;;;;;;5014443;28;20034;-56
2022/02/13 01:28:37;;;;;;;11.50;9.18;;;2.50;99.90;;;;;;5014286;28;21608;-54
2022/02/13 01:31:04;;;;;;;14.20;9.93;;;2.60;99.90;;;;;;5014400;28;20061;-55
2022/02/13 01:33:30;;;;;;;13.98;9.60;;;2.60;99.90;;;;;;5014258;28;20030;-54
2022/02/13 01:35:56;;;;;;;13.30;9.75;;;2.60;99.90;;;;;;5014614;28;20034;-55
2022/02/13 01:38:23;;;;;;;13.52;9.40;;;2.60;99.90;;;;;;5013992;28;20053;-54
2022/02/13 01:40:49;;;;;;;13.95;10.25;;;2.50;99.90;;;;;;5016960;28;20088;-52
2022/02/13 01:43:15;;;;;;;14.32;9.80;;;2.50;99.90;;;;;;5033391;28;20477;-56
2022/02/13 01:45:40;;;;;;;16.15;10.05;;;2.60;99.90;;;;;;5007197;28;20093;-55
2022/02/13 01:48:08;;;;;;;16.77;9.90;;;2.50;99.90;;;;;;5015159;28;20061;-56
2022/02/13 01:50:35;;;;;;;12.88;9.52;;;2.60;99.90;;;;;;5012803;28;20040;-53
2022/02/13 01:53:01;;;;;;;14.95;9.88;;;2.60;99.90;;;;;;4997569;28;20044;-54
2022/02/13 01:55:27;;;;;;;14.38;9.65;;;2.50;99.90;;;;;;5013369;28;20509;-56
2022/02/13 01:57:52;;;;;;;13.00;9.93;;;2.50;99.90;;;;;;5013532;28;20045;-55
2022/02/13 02:00:18;;;;;;;15.55;9.73;;;2.60;99.90;;;;;;5013881;28;20022;-52
2022/02/13 02:02:43;;;;;;;15.70;9.65;;;2.50;99.90;;;;;;5013771;28;20049;-55
2022/02/13 02:05:09;;;;;;;13.57;9.35;;;2.50;99.90;;;;;;5009314;28;20033;-55
2022/02/13 02:07:35;;;;;;;14.18;10.25;;;2.50;99.90;;;;;;5018414;28;20064;-52
2022/02/13 02:10:00;;;;;;;13.30;9.77;;;2.50;99.90;;;;;;5013101;28;20497;-52
2022/02/13 02:12:26;;;;;;;12.07;9.77;;;2.40;99.90;;;;;;5012035;28;20029;-57
2022/02/13 02:14:52;;;;;;;15.27;10.00;;;2.30;99.90;;;;;;5012241;28;20510;-52
2022/02/13 02:17:18;;;;;;;14.77;10.25;;;2.20;99.90;;;;;;5012193;28;20033;-53
2022/02/13 02:19:44;;;;;;;15.18;9.80;;;2.20;99.90;;;;;;5012213;28;20378;-53
2022/02/13 02:22:10;;;;;;;12.95;9.23;;;2.10;99.90;;;;;;5012269;28;20021;-54
2022/02/13 02:24:36;;;;;;;14.55;9.45;;;2.10;99.90;;;;;;4992135;28;20037;-55
2022/02/13 02:27:02;;;;;;;12.52;8.73;;;2.20;99.90;;;;;;4994708;28;20030;-53
2022/02/13 02:29:29;;;;;;;14.75;9.73;;;2.10;99.90;;;;;;5012451;28;20113;-52
2022/02/13 02:31:55;;;;;;;14.13;9.68;;;2.10;99.90;;;;;;5011505;28;20417;-54
2022/02/13 02:34:20;;;;;;;12.73;8.70;;;2.10;99.90;;;;;;5011418;28;20029;-50
2022/02/13 02:36:46;;;;;;;14.63;9.18;;;2.10;99.90;;;;;;5011523;28;20117;-54
2022/02/13 02:39:11;;;;;;;14.77;9.43;;;2.10;99.90;;;;;;5011615;28;20556;-53
2022/02/13 02:41:37;;;;;;;12.38;8.38;;;2.10;99.90;;;;;;5017770;28;20456;-52
2022/02/13 02:44:04;;;;;;;13.00;8.73;;;2.10;99.90;;;;;;5010663;28;20518;-53
2022/02/13 02:46:29;;;;;;;15.75;8.43;;;2.20;99.90;;;;;;4997890;28;20113;-53
2022/02/13 02:48:55;;;;;;;12.50;9.32;;;2.20;99.90;;;;;;5012204;28;20121;-55
2022/02/13 02:51:21;;;;;;;12.02;8.63;;;2.10;99.90;;;;;;5013028;28;20030;-54
2022/02/13 02:53:47;;;;;;;13.25;8.77;;;2.10;99.90;;;;;;5012240;28;20552;-51
2022/02/13 02:56:12;;;;;;;12.50;8.88;;;2.20;99.90;;;;;;5012973;28;20030;-55
2022/02/13 02:58:38;;;;;;;9.88;7.65;;;2.20;99.90;;;;;;5012046;28;20018;-50
2022/02/13 03:01:05;;;;;;;13.07;7.45;;;2.20;99.90;;;;;;5010225;28;20154;-52
2022/02/13 03:03:32;;;;;;;11.77;8.23;;;2.20;99.90;;;;;;5010854;28;20046;-52
2022/02/13 03:05:58;;;;;;;14.27;8.88;;;2.20;99.90;;;;;;5011717;28;20120;-56
2022/02/13 03:08:24;;;;;;;11.82;8.15;;;2.20;99.90;;;;;;5012035;28;20508;-51
2022/02/13 03:10:50;;;;;;;12.20;8.70;;;2.30;99.90;;;;;;5012494;28;20129;-55
2022/02/13 03:13:16;;;;;;;14.77;8.68;;;2.30;99.90;;;;;;5012311;28;20028;-55
2022/02/13 03:15:43;;;;;;;13.10;8.05;;;2.30;99.90;;;;;;5012737;28;20088;-55
2022/02/13 03:18:09;;;;;;;10.88;8.27;;;2.30;99.90;;;;;;4975757;28;20505;-52
2022/02/13 03:20:35;;;;;;;11.55;8.57;;;2.40;99.90;;;;;;5012507;28;20033;-51
2022/02/13 03:23:01;;;;;;;11.45;8.57;;;2.30;99.90;;;;;;5012904;28;20432;-51
2022/02/13 03:25:26;;;;;;;12.35;8.10;;;2.50;99.90;;;;;;5012101;28;20038;-52
2022/02/13 03:27:52;;;;;;;11.02;7.80;;;2.40;99.90;;;;;;5012272;28;20406;-53
2022/02/13 03:30:17;;;;;;;11.35;8.50;;;2.40;99.90;;;;;;5012728;28;20550;-51
2022/02/13 03:32:43;;;;;;;12.32;8.73;;;2.40;99.90;;;;;;4994690;28;20393;-53
2022/02/13 03:35:09;;;;;;;11.77;8.63;;;2.40;99.90;;;;;;5012978;28;20033;-51
2022/02/13 03:37:37;;;;;;;13.35;8.00;;;2.40;99.90;;;;;;4995375;28;20034;-55
2022/02/13 03:40:04;;;;;;;12.77;8.35;;;2.40;99.90;;;;;;5012484;28;20076;-53
2022/02/13 03:42:29;;;;;;;11.02;7.65;;;2.40;99.90;;;;;;5012968;28;20029;-55
2022/02/13 03:44:55;;;;;;;11.43;7.90;;;2.40;99.90;;;;;;5012875;28;20033;-55
2022/02/13 03:47:20;;;;;;;13.60;8.30;;;2.40;99.90;;;;;;5012723;28;20042;-54
2022/02/13 03:49:46;;;;;;;10.75;7.88;;;2.40;99.90;;;;;;5012274;28;20061;-53
2022/02/13 03:52:11;;;;;;;9.55;7.82;;;2.50;99.90;;;;;;5012097;28;20072;-55
2022/02/13 03:54:37;;;;;;;10.98;7.88;;;2.50;99.90;;;;;;5019328;28;20034;-52
2022/02/13 03:57:03;;;;;;;10.95;8.30;;;2.50;99.90;;;;;;5015690;28;20102;-53
2022/02/13 03:59:28;;;;;;;11.85;8.07;;;2.40;99.90;;;;;;5015696;28;20723;-50
2022/02/13 04:01:54;;;;;;;12.65;7.82;;;2.40;99.90;;;;;;5015468;28;20125;-54
2022/02/13 04:04:19;;;;;;;12.00;7.65;;;2.40;99.90;;;;;;4997890;28;20486;-53
2022/02/13 04:06:45;;;;;;;10.57;7.55;;;2.40;99.90;;;;;;5016244;28;20494;-50
2022/02/13 04:09:10;;;;;;;10.73;7.70;;;2.40;99.90;;;;;;5015540;28;20076;-54
2022/02/13 04:11:36;;;;;;;13.77;7.95;;;2.30;99.90;;;;;;5015935;28;20065;-50
2022/02/13 04:14:02;;;;;;;10.98;7.57;;;2.40;99.90;;;;;;5016201;28;20088;-52
2022/02/13 04:16:27;;;;;;;13.15;8.63;;;2.30;99.90;;;;;;5015763;28;20030;-54
2022/02/13 04:18:53;;;;;;;11.60;7.93;;;2.30;99.90;;;;;;5015905;28;20033;-53
2022/02/13 04:21:18;;;;;;;12.30;8.13;;;2.30;99.90;;;;;;5016041;28;20554;-54
2022/02/13 04:23:44;;;;;;;11.70;8.02;;;2.20;99.90;;;;;;5014464;28;20125;-54
2022/02/13 04:26:09;;;;;;;11.60;8.00;;;2.20;99.90;;;;;;5015694;28;20123;-51
2022/02/13 04:28:35;;;;;;;9.40;7.53;;;2.20;99.90;;;;;;5014893;28;20033;-52
2022/02/13 04:31:01;;;;;;;10.73;7.70;;;2.20;99.90;;;;;;5015242;28;20120;-52
2022/02/13 04:33:26;;;;;;;13.13;8.30;;;2.20;99.90;;;;;;5014411;28;20037;-49
2022/02/13 04:35:52;;;;;;;11.23;7.63;;;2.30;99.90;;;;;;5015538;28;20450;-54
2022/02/13 04:38:17;;;;;;;9.50;6.95;;;2.30;99.90;;;;;;5014841;28;20065;-53
2022/02/13 04:40:43;;;;;;;12.20;8.30;;;2.30;99.90;;;;;;5013591;28;20033;-55
2022/02/13 04:43:09;;;;;;;10.70;7.55;;;2.20;99.90;;;;;;5014804;28;20493;-52
2022/02/13 04:45:34;;;;;;;13.75;7.95;;;2.20;99.90;;;;;;5015374;28;20045;-53
2022/02/13 04:48:00;;;;;;;13.32;8.45;;;2.30;99.90;;;;;;5015623;28;20582;-54
2022/02/13 04:50:26;;;;;;;12.10;8.55;;;2.20;99.90;;;;;;5015222;28;20500;-53
2022/02/13 04:52:53;;;;;;;11.77;8.13;;;2.20;99.90;;;;;;5015299;28;20030;-53
2022/02/13 04:55:20;;;;;;;13.30;8.20;;;2.20;99.90;;;;;;5015081;28;20030;-53
2022/02/13 04:57:47;;;;;;;12.55;7.95;;;2.30;99.90;;;;;;5014082;28;20029;-52
2022/02/13 05:00:14;;;;;;;13.73;8.70;;;2.20;99.90;;;;;;5014130;28;20038;-52
2022/02/13 05:02:40;;;;;;;13.07;9.40;;;2.30;99.90;;;;;;5014069;28;20037;-53
2022/02/13 05:05:07;;;;;;;12.32;8.38;;;2.30;99.90;;;;;;5014520;28;20102;-54
2022/02/13 05:07:33;;;;;;;14.40;8.30;;;2.30;99.90;;;;;;5015145;28;20026;-54
2022/02/13 05:09:59;;;;;;;13.02;8.45;;;2.30;99.90;;;;;;5014663;28;20060;-53
2022/02/13 05:12:24;;;;;;;13.65;8.48;;;2.30;99.90;;;;;;5014409;28;20076;-51
2022/02/13 05:14:50;;;;;;;13.95;8.48;;;2.30;99.90;;;;;;5014430;28;20034;-53
2022/02/13 05:17:16;;;;;;;10.95;7.65;;;2.30;99.90;;;;;;5015942;28;20029;-53
2022/02/13 05:19:42;;;;;;;9.43;7.38;;;2.30;99.90;;;;;;5004819;28;20057;-54
2022/02/13 05:22:07;;;;;;;10.75;7.88;;;2.30;99.90;;;;;;5013795;28;20065;-54
2022/02/13 05:24:36;;;;;;;11.02;7.63;;;2.30;99.90;;;;;;5014408;28;20038;-52
2022/02/13 05:27:04;;;;;;;12.23;7.88;;;2.20;99.90;;;;;;4996636;28;20029;-54
2022/02/13 05:29:30;;;;;;;11.82;8.00;;;2.30;99.90;;;;;;5013896;28;20034;-55
2022/02/13 05:31:56;;;;;;;11.98;7.95;;;2.30;99.90;;;;;;5013995;28;20026;-53
2022/02/13 05:34:22;;;;;;;14.20;8.60;;;2.30;99.90;;;;;;5013414;28;20042;-55
2022/02/13 05:36:47;;;;;;;12.10;7.55;;;2.30;99.90;;;;;;5014001;28;20026;-53
2022/02/13 05:39:13;;;;;;;12.52;8.18;;;2.30;99.90;;;;;;5013815;28;20481;-54
2022/02/13 05:41:39;;;;;;;13.95;8.25;;;2.30;99.90;;;;;;5013785;28;20116;-54
2022/02/13 05:44:04;;;;;;;10.75;8.20;;;2.30;99.90;;;;;;5013364;28;20093;-54
2022/02/13 05:46:30;;;;;;;11.95;9.05;;;2.30;99.90;;;;;;5013488;28;20596;-51
2022/02/13 05:48:57;;;;;;;11.82;7.97;;;2.30;99.90;;;;;;5021308;28;20043;-53
2022/02/13 05:51:23;;;;;;;10.90;7.55;;;2.30;99.90;;;;;;5016048;28;20401;-56
2022/02/13 05:53:50;;;;;;;13.73;8.25;;;2.30;99.90;;;;;;5018702;28;20025;-55
2022/02/13 05:56:15;;;;;;;14.05;7.85;;;2.30;99.90;;;;;;5013085;28;20033;-58
2022/02/13 05:58:42;;;;;;;12.50;8.32;;;2.30;99.90;;;;;;4993814;28;20035;-55
2022/02/13 06:01:09;;;;;;;13.88;8.15;;;2.20;99.90;;;;;;5003209;28;20072;-54
2022/02/13 06:03:34;;;;;;;11.80;8.02;;;2.30;99.90;;;;;;4996108;28;20046;-52
2022/02/13 06:06:00;;;;;;;11.98;9.10;;;2.30;99.90;;;;;;5013110;28;20041;-55
2022/02/13 06:08:26;;;;;;;11.98;8.30;;;2.20;99.90;;;;;;5013599;28;20553;-55
2022/02/13 06:10:51;;;;;;;9.65;7.53;;;2.30;99.90;;;;;;4995900;28;20065;-53
2022/02/13 06:13:17;;;;;;;10.73;7.45;;;2.30;99.90;;;;;;5012886;28;20528;-54
2022/02/13 06:15:43;;;;;;;11.07;8.30;;;2.20;99.90;;;;;;5013437;28;20033;-52
2022/02/13 06:18:08;;;;;;;11.65;7.72;;;2.10;99.90;;;;;;4994688;28;20125;-53
2022/02/13 06:20:34;;;;;;;10.13;7.03;;;2.00;99.90;;;;;;5013231;28;20037;-55
2022/02/13 06:22:59;;;;;;;11.88;7.70;;;2.00;99.90;;;;;;5012604;28;20041;-51
2022/02/13 06:25:25;;;;;;;12.57;7.82;;;1.90;99.90;;;;;;4995610;28;20022;-55
2022/02/13 06:27:57;;;;;;;11.98;7.47;;;1.90;99.90;;;;;;4980034;28;20026;-53
2022/02/13 06:30:22;;;;;;;9.68;7.53;;;1.90;99.90;;;;;;5015600;28;20041;-55
2022/02/13 06:32:48;;;;;;;12.38;8.13;;;1.80;99.90;;;;;;5013973;28;20030;-56
2022/02/13 06:35:13;;;;;;;13.10;8.02;;;1.70;99.90;;;;;;5014071;28;20056;-54
2022/02/13 06:37:39;;;;;;;12.70;7.80;;;1.60;99.90;;;;;;5013435;28;20512;-54
2022/02/13 06:40:05;;;;;;;11.32;8.40;;;1.60;99.90;;;;;;5014172;28;20479;-56
2022/02/13 06:42:30;;;;;;;11.55;7.97;;;1.50;99.90;;;;;;5013647;28;20077;-54
2022/02/13 06:44:56;;;;;;;21.38;13.25;;;1.50;99.90;;;;;;5015088;28;20034;-56
2022/02/13 06:47:22;;;;;;;22.83;11.05;;;1.50;99.90;;;;;;5013992;28;20046;-53
2022/02/13 06:49:47;;;;;;;13.10;8.23;;;1.50;99.90;;;;;;5013201;28;20034;-56
2022/02/13 06:52:13;;;;;;;13.07;7.63;;;1.50;99.90;;;;;;5013103;28;20049;-56
2022/02/13 06:54:38;;;;;;;13.73;8.15;;;1.60;99.90;;;;;;4995241;28;20056;-53
2022/02/13 06:57:05;;;;;;;11.90;9.40;;;1.50;99.90;;;;;;5012744;28;20105;-53
2022/02/13 06:59:30;;;;;;;13.13;9.80;;;1.60;99.90;;;;;;5012961;28;20120;-51
2022/02/13 07:01:56;;;;;;;17.85;10.75;;;1.60;99.90;;;;;;5012581;28;20125;-53
2022/02/13 07:04:21;;;;;;;13.10;8.32;;;1.60;99.90;;;;;;5015210;28;20038;-53
2022/02/13 07:06:47;;;;;;;12.98;7.93;;;1.60;99.90;;;;;;5012588;28;20030;-59
2022/02/13 07:09:13;;;;;;;14.25;9.00;;;1.60;99.90;;;;;;5012628;28;20616;-55
2022/02/13 07:11:38;;;;;;;12.73;8.18;;;1.70;99.90;;;;;;5009927;28;20124;-54
2022/02/13 07:14:04;;;;;;;16.77;9.35;;;1.70;99.90;;;;;;5000257;28;20041;-54
2022/02/13 07:16:29;;;;;;;12.95;8.35;;;1.80;99.90;;;;;;5012537;28;20566;-58
2022/02/13 07:18:59;;;;;;;13.48;8.80;;;1.80;99.90;;;;;;5012391;28;20261;-53
2022/02/13 07:21:24;;;;;;;14.70;9.20;;;1.80;99.90;;;;;;5012361;28;20033;-56
2022/02/13 07:23:50;;;;;;;16.38;10.48;;;1.80;99.90;;;;;;5012250;28;20083;-54
2022/02/13 07:26:16;;;;;;;15.30;10.02;;;1.90;99.90;;;;;;4994549;28;20049;-57
2022/02/13 07:28:59;;;;;;;11.68;9.32;;;1.80;99.90;;;;;;5012885;28;20044;-54
2022/02/13 07:31:26;;;;;;;12.05;8.05;;;1.90;99.90;;;;;;5015800;28;20030;-58
2022/02/13 07:33:52;;;;;;;18.90;9.65;;;2.00;99.90;;;;;;5016076;28;20034;-54
2022/02/13 07:36:18;;;;;;;11.38;7.80;;;2.00;99.90;;;;;;5015597;28;20471;-56
2022/02/13 07:38:43;;;;;;;13.85;9.45;;;2.10;99.90;;;;;;5015611;28;20049;-57
2022/02/13 07:41:09;;;;;;;12.45;8.18;;;2.10;99.90;;;;;;5018200;28;20030;-56
2022/02/13 07:43:34;;;;;;;12.75;8.65;;;2.10;99.90;;;;;;5005327;28;20490;-55
2022/02/13 07:46:00;;;;;;;28.52;18.42;;;2.20;99.90;;;;;;5015855;28;20494;-58
2022/02/13 07:48:26;;;;;;;14.75;9.55;;;2.30;99.90;;;;;;5015742;28;20048;-56
2022/02/13 07:50:52;;;;;;;11.13;8.52;;;2.50;99.90;;;;;;5015988;28;20037;-54
2022/02/13 07:53:17;;;;;;;11.75;8.68;;;2.50;99.90;;;;;;5015819;28;20038;-56
2022/02/13 07:55:43;;;;;;;13.23;8.80;;;2.70;99.90;;;;;;5016343;28;20041;-52
2022/02/13 07:58:09;;;;;;;13.63;9.20;;;2.80;99.90;;;;;;5015692;28;20041;-55
2022/02/13 08:00:35;;;;;;;17.27;9.27;;;2.90;99.90;;;;;;5016664;28;20049;-54
2022/02/13 08:03:01;;;;;;;14.50;9.40;;;2.90;99.90;;;;;;5015417;28;20030;-54
2022/02/13 08:05:26;;;;;;;10.77;8.70;;;2.90;99.90;;;;;;5008848;28;20136;-57
2022/02/13 08:07:52;;;;;;;9.63;7.68;;;2.80;99.90;;;;;;5024119;28;20038;-57
2022/02/13 08:10:18;;;;;;;12.00;8.18;;;2.90;99.90;;;;;;5022771;28;20026;-58
2022/02/13 08:12:45;;;;;;;11.50;8.23;;;2.90;99.90;;;;;;5015174;28;20101;-55
2022/02/13 08:15:11;;;;;;;11.18;7.60;;;2.90;99.90;;;;;;4997631;28;20084;-56
2022/02/13 08:17:37;;;;;;;12.43;8.25;;;2.80;99.90;;;;;;5018149;28;20037;-57
2022/02/13 08:20:05;;;;;;;12.85;8.82;;;2.80;99.90;;;;;;5015590;28;20433;-56
2022/02/13 08:22:35;;;;;;;24.25;15.18;;;2.80;99.90;;;;;;5015652;28;20083;-55
2022/02/13 08:25:02;;;;;;;12.85;8.57;;;2.90;99.90;;;;;;5015236;28;20453;-56
2022/02/13 08:27:28;;;;;;;12.70;7.65;;;2.90;99.90;;;;;;5015822;28;20089;-58
2022/02/13 08:29:53;;;;;;;12.05;7.78;;;2.90;99.90;;;;;;5032200;28;20052;-58
2022/02/13 08:32:19;;;;;;;12.05;8.02;;;2.90;99.90;;;;;;5013142;28;20128;-55
2022/02/13 08:34:45;;;;;;;10.65;7.20;;;3.00;99.90;;;;;;5003190;28;20445;-57
2022/02/13 08:37:12;;;;;;;11.52;7.80;;;3.00;99.90;;;;;;4996594;28;20038;-56
2022/02/13 08:39:38;;;;;;;11.90;7.63;;;3.10;99.90;;;;;;4964327;28;20471;-52
2022/02/13 08:42:04;;;;;;;11.07;7.57;;;3.30;99.90;;;;;;4961079;28;20038;-52
2022/02/13 08:44:30;;;;;;;10.88;7.97;;;3.30;99.90;;;;;;4992613;28;20498;-56
2022/02/13 08:46:55;;;;;;;11.07;7.32;;;3.40;99.90;;;;;;4981701;28;20034;-58
2022/02/13 08:49:21;;;;;;;12.50;8.10;;;3.40;99.90;;;;;;5014704;28;20042;-56
2022/02/13 08:51:46;;;;;;;10.13;7.40;;;3.50;99.70;;;;;;5015295;28;20038;-56
2022/02/13 08:54:12;;;;;;;10.30;7.35;;;3.50;99.80;;;;;;5009049;28;20060;-53
2022/02/13 08:56:38;;;;;;;11.18;7.40;;;3.60;99.70;;;;;;4993720;28;20030;-56
2022/02/13 08:59:03;;;;;;;9.63;7.10;;;3.60;99.50;;;;;;4981243;28;20426;-57
2022/02/13 09:01:29;;;;;;;10.88;6.93;;;3.70;99.20;;;;;;5004635;28;20034;-56
2022/02/13 09:03:54;;;;;;;10.90;7.10;;;3.70;99.10;;;;;;5009962;28;20429;-58
2022/02/13 09:06:20;;;;;;;9.68;7.13;;;3.70;98.70;;;;;;4996899;28;20045;-55
2022/02/13 09:08:46;;;;;;;8.65;6.07;;;3.80;98.50;;;;;;4981665;28;20034;-55
2022/02/13 09:11:12;;;;;;;8.68;6.82;;;3.80;98.70;;;;;;5002666;28;20490;-56
2022/02/13 09:13:38;;;;;;;8.73;6.63;;;3.80;98.80;;;;;;5015798;28;20084;-59
2022/02/13 09:16:04;;;;;;;16.77;6.63;;;3.90;98.30;;;;;;5010676;28;20107;-53
2022/02/13 09:18:30;;;;;;;12.45;6.68;;;3.90;98.00;;;;;;5014380;28;20652;-58
2022/02/13 09:20:55;;;;;;;9.18;6.65;;;3.90;98.10;;;;;;5014139;28;20057;-56
2022/02/13 09:23:21;;;;;;;11.38;6.55;;;4.00;97.90;;;;;;4980540;28;20117;-59
2022/02/13 09:25:48;;;;;;;11.63;6.97;;;4.00;98.20;;;;;;4996599;28;20065;-56
2022/02/13 09:28:15;;;;;;;11.00;6.65;;;4.10;98.00;;;;;;5025095;28;20121;-55
2022/02/13 09:30:41;;;;;;;9.30;6.53;;;4.10;98.10;;;;;;5004785;28;20501;-55
2022/02/13 09:33:07;;;;;;;11.90;7.35;;;4.10;97.90;;;;;;5012060;28;20046;-53
2022/02/13 09:35:32;;;;;;;8.60;7.35;;;4.10;98.20;;;;;;5014046;28;20025;-57
2022/02/13 09:37:58;;;;;;;10.38;7.40;;;4.20;97.80;;;;;;5013729;28;20068;-58
2022/02/13 09:40:25;;;;;;;9.20;7.32;;;4.20;97.90;;;;;;5013894;28;20164;-59
2022/02/13 09:42:52;;;;;;;12.15;7.15;;;4.30;98.10;;;;;;4979702;28;20541;-56
2022/02/13 09:45:19;;;;;;;9.65;6.88;;;4.30;98.10;;;;;;5017249;28;20029;-55
2022/02/13 09:47:45;;;;;;;13.00;7.78;;;4.30;98.20;;;;;;5013271;28;20030;-56
2022/02/13 09:50:10;;;;;;;10.32;7.20;;;4.30;97.90;;;;;;4996643;28;20108;-54
2022/02/13 09:52:37;;;;;;;11.90;7.63;;;4.40;98.00;;;;;;4977235;28;20038;-56
2022/02/13 09:55:03;;;;;;;10.25;7.13;;;4.50;98.10;;;;;;5012923;28;20026;-56
2022/02/13 10:00:14;;;;;;;11.27;7.45;;;4.60;97.80;;;;;;4996184;28;20105;-56
2022/02/13 10:02:43;;;;;;;11.82;7.43;;;4.70;97.80;;;;;;4980592;28;20149;-53
2022/02/13 10:05:19;;;;;;;12.85;7.38;;;4.90;97.30;;;;;;5011725;28;20065;-57
2022/02/13 10:07:45;;;;;;;11.13;7.07;;;5.00;97.20;;;;;;4991528;28;20042;-55
2022/02/13 10:10:11;;;;;;;13.05;7.32;;;5.00;96.90;;;;;;5014992;28;20471;-56
2022/02/13 10:12:42;;;;;;;11.70;7.50;;;5.10;96.70;;;;;;4998749;28;20037;-54
2022/02/13 10:15:20;;;;;;;9.93;7.15;;;5.20;96.40;;;;;;5012579;28;20036;-56
2022/02/13 10:18:07;;;;;;;10.25;7.63;;;5.30;96.30;;;;;;5012778;28;20029;-57
2022/02/13 10:20:41;;;;;;;10.73;7.65;;;5.30;96.40;;;;;;5008721;28;20037;-56
2022/02/13 10:23:15;;;;;;;10.48;7.28;;;5.30;96.30;;;;;;5012517;28;20471;-55
2022/02/13 10:25:42;;;;;;;11.48;7.68;;;5.40;96.30;;;;;;5012595;28;20057;-54
2022/02/13 10:28:16;;;;;;;12.27;7.72;;;5.30;95.70;;;;;;4994980;28;20034;-55
2022/02/13 10:30:46;;;;;;;11.65;8.55;;;5.30;96.20;;;;;;5012592;28;20033;-56
2022/02/13 10:33:21;;;;;;;12.57;7.40;;;5.40;96.30;;;;;;5011239;28;20044;-55
2022/02/13 10:36:00;;;;;;;;;;;5.40;96.10;;;;;;5000406;28;20030;-58
2022/02/13 10:38:30;;;;;;;10.63;8.13;;;5.50;96.40;;;;;;5013019;28;19914;-54
2022/02/13 10:41:10;;;;;;;11.85;8.23;;;5.60;96.20;;;;;;5012534;28;20504;-54
2022/02/13 10:43:57;;;;;;;9.27;7.78;;;5.70;96.10;;;;;;5011478;28;20110;-56
2022/02/13 10:46:30;;;;;;;12.70;8.27;;;5.70;96.10;;;;;;5013749;28;20057;-58
2022/02/13 10:48:56;;;;;;;12.95;7.45;;;5.80;96.10;;;;;;5012317;28;20393;-58
2022/02/13 10:51:22;;;;;;;10.90;7.82;;;5.80;96.10;;;;;;5013373;28;20104;-58
2022/02/13 10:53:48;;;;;;;13.38;7.72;;;5.70;96.50;;;;;;4979412;28;20037;-54
2022/02/13 10:56:14;;;;;;;14.27;8.57;;;5.70;96.80;;;;;;5013512;28;20386;-54
2022/02/13 10:58:39;;;;;;;10.45;7.88;;;5.80;96.30;;;;;;5012881;28;20029;-59
2022/02/13 11:01:06;;;;;;;11.52;8.82;;;5.90;96.20;;;;;;5012378;28;20385;-57
2022/02/13 11:03:35;;;;;;;10.90;7.28;;;5.90;96.40;;;;;;5017766;28;20531;-57
2022/02/13 11:06:04;;;;;;;13.45;8.98;;;6.00;96.60;;;;;;5004594;28;20042;-57
2022/02/13 11:08:34;;;;;;;13.63;7.80;;;6.20;96.40;;;;;;5015795;28;20442;-57
2022/02/13 11:11:01;;;;;;;11.52;8.20;;;6.30;96.30;;;;;;4996779;28;20401;-58
2022/02/13 11:13:30;;;;;;;10.13;8.05;;;6.30;96.20;;;;;;5010616;28;20023;-57
2022/02/13 11:15:56;;;;;;;12.60;7.93;;;6.50;95.90;;;;;;4998668;28;20030;-56
2022/02/13 11:18:27;;;;;;;10.90;8.27;;;6.50;96.30;;;;;;4998716;28;20037;-58
2022/02/13 11:20:55;;;;;;;10.27;7.85;;;6.70;96.10;;;;;;4974636;28;20041;-57
2022/02/13 11:23:24;;;;;;;11.77;8.00;;;6.60;96.10;;;;;;5016450;28;20512;-53
2022/02/13 11:26:07;;;;;;;11.05;8.75;;;6.60;96.00;;;;;;5017785;28;20049;-60
2022/02/13 11:28:42;;;;;;;10.57;7.53;;;6.80;96.10;;;;;;5016992;28;20053;-54
2022/02/13 11:31:28;;;;;;;12.10;7.82;;;7.00;95.90;;;;;;5013691;28;20506;-53
2022/02/13 11:33:54;;;;;;;13.10;8.15;;;7.10;95.50;;;;;;4996120;28;20137;-55
2022/02/13 11:36:20;;;;;;;9.98;7.30;;;7.10;95.20;;;;;;4999925;28;20049;-59
2022/02/13 11:38:51;;;;;;;15.57;8.00;;;7.20;95.40;;;;;;4999428;28;20034;-56
2022/02/13 11:41:21;;;;;;;9.48;7.63;;;7.30;94.70;;;;;;4999470;28;20029;-57
2022/02/13 11:43:59;;;;;;;10.00;7.53;;;7.50;94.90;;;;;;5016667;28;20351;-57
2022/02/13 11:46:30;;;;;;;12.10;8.07;;;7.50;94.60;;;;;;5016689;28;20089;-57
2022/02/13 11:49:02;;;;;;;11.43;8.52;;;7.60;94.70;;;;;;5016652;28;20041;-57
2022/02/13 11:51:45;;;;;;;13.77;8.05;;;7.60;95.00;;;;;;5016303;28;20591;-57
2022/02/13 11:54:40;;;;;;;14.05;8.27;;;7.70;95.20;;;;;;4998892;28;20030;-57
2022/02/13 11:57:14;;;;;;;10.18;7.45;;;7.80;95.00;;;;;;5008652;28;20040;-56
2022/02/13 11:59:53;;;;;;;10.85;8.02;;;7.90;95.00;;;;;;4995330;28;20247;-56
2022/02/13 12:02:31;;;;;;;11.38;7.90;;;8.00;95.10;;;;;;5010570;28;20039;-58
2022/02/13 12:05:26;;;;;;;12.32;8.18;;;7.90;95.10;;;;;;5014395;28;20072;-53
2022/02/13 12:07:54;;;;;;;13.27;7.72;;;7.90;95.20;;;;;;4966418;28;20129;-56
2022/02/13 12:10:31;;;;;;;13.88;8.30;;;7.90;95.60;;;;;;5015962;28;20026;-57
2022/02/13 12:13:10;;;;;;;13.55;8.15;;;7.90;95.60;;;;;;4996955;28;20091;-59
2022/02/13 12:15:37;;;;;;;13.05;7.90;;;8.10;95.60;;;;;;5012791;28;20034;-58
2022/02/13 12:18:06;;;;;;;10.52;7.65;;;8.10;95.80;;;;;;5015233;28;20083;-57
2022/02/13 12:20:33;;;;;;;10.77;7.60;;;8.20;95.70;;;;;;5015543;28;20024;-58
2022/02/13 12:23:06;;;;;;;14.43;8.00;;;8.30;95.30;;;;;;5014852;28;20030;-58
2022/02/13 12:25:38;;;;;;;10.52;7.03;;;8.30;95.10;;;;;;4998134;28;20025;-59
2022/02/13 12:28:05;;;;;;;10.40;7.47;;;8.30;95.00;;;;;;4971254;28;20045;-55
2022/02/13 12:30:31;;;;;;;9.25;7.28;;;8.30;95.10;;;;;;4976821;28;20042;-59
2022/02/13 12:33:02;;;;;;;12.05;8.15;;;8.40;95.40;;;;;;5015426;28;20105;-56
2022/02/13 12:35:33;;;;;;;9.98;7.22;;;8.50;95.40;;;;;;5013159;28;20175;-61
2022/02/13 12:38:02;;;;;;;13.73;7.57;;;8.60;95.10;;;;;;5017964;28;20394;-57
2022/02/13 12:40:33;;;;;;;10.27;7.18;;;8.70;94.90;;;;;;5015350;28;20034;-57
2022/02/13 12:43:07;;;;;;;11.27;7.22;;;8.80;94.70;;;;;;5011318;28;20026;-56
2022/02/13 12:45:38;;;;;;;10.55;7.35;;;8.90;94.60;;;;;;4989462;28;20031;-58
2022/02/13 12:48:06;;;;;;;10.95;7.03;;;9.00;94.70;;;;;;5015905;28;20034;-57